createdAt,value
2023-01-02T00:00:49.098Z,98296.25
2023-01-02T00:01:50.686Z,98291.66
2023-01-02T00:02:52.525Z,98291.28
2023-01-02T00:03:56.712Z,98289.13
2023-01-02T00:04:58.432Z,98291.53
2023-01-02T00:06:03.591Z,98297.09
2023-01-02T00:07:05.142Z,98296.47
2023-01-02T00:08:06.741Z,98295.38
2023-01-02T00:09:08.717Z,98288.47
2023-01-02T00:10:10.294Z,98293.47
2023-01-02T00:11:11.848Z,98300.09
2023-01-02T00:12:13.406Z,98296.06
2023-01-02T00:13:14.930Z,98294.59
2023-01-02T00:14:16.505Z,98288.25
2023-01-02T00:15:18.177Z,98291.75
2023-01-02T00:16:19.838Z,98292.06
2023-01-02T00:17:21.485Z,98292.34
2023-01-02T00:18:23.031Z,98295.03
2023-01-02T00:19:24.598Z,98290.81
2023-01-02T00:20:26.108Z,98295.63
2023-01-02T00:21:27.626Z,98291.66
2023-01-02T00:22:29.119Z,98291.41
2023-01-02T00:23:31.420Z,98293.50
2023-01-02T00:24:32.982Z,98292.97
2023-01-02T00:25:35.028Z,98291.13
2023-01-02T00:26:36.651Z,98288.19
2023-01-02T00:27:38.207Z,98293.50
2023-01-02T00:28:39.819Z,98285.56
2023-01-02T00:29:41.365Z,98290.38
2023-01-02T00:30:42.937Z,98294.38
2023-01-02T00:31:44.528Z,98299.44
2023-01-02T00:32:46.032Z,98293.06
2023-01-02T00:33:47.607Z,98290.66
2023-01-02T00:34:49.159Z,98297.28
2023-01-02T00:35:50.706Z,98293.56
2023-01-02T00:36:52.292Z,98294.09
2023-01-02T00:37:53.821Z,98291.97
2023-01-02T00:38:56.481Z,98288.25
2023-01-02T00:39:58.018Z,98294.91
2023-01-02T00:41:00.192Z,98285.56
2023-01-02T00:42:01.701Z,98290.06
2023-01-02T00:43:03.749Z,98295.69
2023-01-02T00:44:05.340Z,98289.06
2023-01-02T00:45:07.946Z,98292.00
2023-01-02T00:46:11.868Z,98290.94
2023-01-02T00:47:13.630Z,98279.84
2023-01-02T00:48:15.153Z,98292.59
2023-01-02T00:49:16.719Z,98287.81
2023-01-02T00:50:18.320Z,98297.94
2023-01-02T00:51:19.933Z,98290.50
2023-01-02T00:52:21.501Z,98292.13
2023-01-02T00:53:23.114Z,98293.44
2023-01-02T00:54:24.715Z,98289.50
2023-01-02T00:55:26.212Z,98284.47
2023-01-02T00:56:27.762Z,98287.63
2023-01-02T00:57:29.297Z,98287.63
2023-01-02T00:58:30.835Z,98284.72
2023-01-02T00:59:32.392Z,98286.34
2023-01-02T01:00:34.008Z,98285.28
2023-01-02T01:01:35.941Z,98284.22
2023-01-02T01:02:37.777Z,98287.97
2023-01-02T01:03:39.477Z,98286.13
2023-01-02T01:04:41.015Z,98285.84
2023-01-02T01:05:42.681Z,98282.94
2023-01-02T01:06:44.205Z,98278.97
2023-01-02T01:07:45.813Z,98284.28
2023-01-02T01:08:47.340Z,98289.59
2023-01-02T01:09:48.852Z,98280.03
2023-01-02T01:10:51.861Z,98287.44
2023-01-02T01:11:53.510Z,98286.63
2023-01-02T01:12:55.084Z,98284.78
2023-01-02T01:13:56.651Z,98288.50
2023-01-02T01:14:58.197Z,98285.31
2023-01-02T01:16:17.431Z,98287.97
2023-01-02T01:17:19.200Z,98277.34
2023-01-02T01:18:20.761Z,98286.38
2023-01-02T01:19:22.291Z,98282.66
2023-01-02T01:20:23.940Z,98280.50
2023-01-02T01:21:25.586Z,98282.63
2023-01-02T01:22:27.175Z,98277.31
2023-01-02T01:23:28.694Z,98281.81
2023-01-02T01:24:30.274Z,98284.72
2023-01-02T01:25:31.797Z,98283.06
2023-01-02T01:26:33.458Z,98283.00
2023-01-02T01:27:35.005Z,98284.84
2023-01-02T01:28:37.498Z,98286.66
2023-01-02T01:29:39.087Z,98282.38
2023-01-02T01:30:40.644Z,98279.19
2023-01-02T01:31:42.309Z,98284.47
2023-01-02T01:32:43.837Z,98279.19
2023-01-02T01:33:45.742Z,98281.28
2023-01-02T01:34:47.702Z,98284.22
2023-01-02T01:35:49.223Z,98273.78
2023-01-02T01:36:50.746Z,98274.31
2023-01-02T01:37:52.286Z,98279.63
2023-01-02T01:38:53.833Z,98267.41
2023-01-02T01:39:56.889Z,98274.00
2023-01-02T01:40:59.044Z,98268.97
2023-01-02T01:42:01.888Z,98265.22
2023-01-02T01:43:03.404Z,98266.78
2023-01-02T01:44:42.897Z,98265.72
2023-01-02T01:45:44.962Z,98252.69
2023-01-02T01:46:47.796Z,98260.38
2023-01-02T01:47:54.318Z,98258.28
2023-01-02T01:49:17.690Z,98256.41
2023-01-02T01:50:24.465Z,98257.69
2023-01-02T01:51:29.493Z,98255.84
2023-01-02T01:52:33.248Z,98262.72
2023-01-02T01:53:35.393Z,98256.31
2023-01-02T01:54:46.529Z,98257.16
2023-01-02T01:55:56.205Z,98253.75
2023-01-02T01:57:06.716Z,98251.41
2023-01-02T01:58:11.566Z,98251.69
2023-01-02T01:59:13.687Z,98251.97
2023-01-02T02:00:16.108Z,98244.56
2023-01-02T02:01:18.185Z,98241.38
2023-01-02T02:02:22.693Z,98247.25
2023-01-02T02:03:28.630Z,98237.44
2023-01-02T02:04:30.289Z,98240.94
2023-01-02T02:05:32.533Z,98245.72
2023-01-02T02:06:34.072Z,98241.72
2023-01-02T02:07:40.529Z,98240.88
2023-01-02T02:08:56.792Z,98241.88
2023-01-02T02:10:07.928Z,98242.81
2023-01-02T02:11:10.229Z,98243.25
2023-01-02T02:12:12.924Z,98240.56
2023-01-02T02:13:14.868Z,98240.50
2023-01-02T02:14:16.599Z,98246.78
2023-01-02T02:15:21.260Z,98250.47
2023-01-02T02:16:36.054Z,98245.09
2023-01-02T02:18:09.528Z,98243.41
2023-01-02T02:19:48.212Z,98238.06
2023-01-02T02:21:11.439Z,98247.25
2023-01-02T02:22:50.301Z,98245.28
2023-01-02T02:24:07.089Z,98241.91
2023-01-02T02:25:23.973Z,98244.38
2023-01-02T02:26:25.457Z,98246.34
2023-01-02T02:27:51.114Z,98246.19
2023-01-02T02:29:22.464Z,98250.75
2023-01-02T02:30:40.606Z,98244.81
2023-01-02T02:31:57.659Z,98245.56
2023-01-02T02:33:04.993Z,98254.22
2023-01-02T02:34:21.441Z,98247.03
2023-01-02T02:35:43.818Z,98255.03
2023-01-02T02:37:03.978Z,98248.00
2023-01-02T02:38:13.951Z,98250.00
2023-01-02T02:39:28.419Z,98248.34
2023-01-02T02:40:49.872Z,98245.91
2023-01-02T02:42:16.914Z,98249.28
2023-01-02T02:43:51.565Z,98246.56
2023-01-02T02:45:08.155Z,98241.75
2023-01-02T02:46:28.200Z,98249.13
2023-01-02T02:47:45.477Z,98242.22
2023-01-02T02:49:21.485Z,98243.03
2023-01-02T02:50:32.714Z,98246.56
2023-01-02T02:51:39.909Z,98244.47
2023-01-02T02:52:45.276Z,98240.31
2023-01-02T02:53:56.082Z,98245.91
2023-01-02T02:55:04.744Z,98246.88
2023-01-02T02:56:09.592Z,98243.19
2023-01-02T02:57:12.846Z,98249.09
2023-01-02T02:58:15.746Z,98243.97
2023-01-02T02:59:18.653Z,98238.88
2023-01-02T03:00:23.213Z,98246.88
2023-01-02T03:01:30.536Z,98246.69
2023-01-02T03:02:32.832Z,98238.81
2023-01-02T03:03:34.806Z,98243.81
2023-01-02T03:04:36.330Z,98249.09
2023-01-02T03:05:40.679Z,98245.72
2023-01-02T03:07:08.644Z,98245.28
2023-01-02T03:08:20.768Z,98249.69
2023-01-02T03:09:38.604Z,98241.34
2023-01-02T03:10:56.806Z,98246.38
2023-01-02T03:12:16.703Z,98236.28
2023-01-02T03:13:27.349Z,98242.44
2023-01-02T03:15:18.231Z,98244.19
2023-01-02T03:16:41.763Z,98240.56
2023-01-02T03:18:03.710Z,98241.66
2023-01-02T03:19:07.336Z,98243.22
2023-01-02T03:20:13.157Z,98244.78
2023-01-02T03:21:31.573Z,98237.41
2023-01-02T03:22:38.100Z,98235.31
2023-01-02T03:23:44.843Z,98241.22
2023-01-02T03:24:50.573Z,98239.25
2023-01-02T03:25:53.391Z,98235.06
2023-01-02T03:27:09.558Z,98239.38
2023-01-02T03:28:14.685Z,98235.72
2023-01-02T03:29:21.044Z,98237.56
2023-01-02T03:30:23.353Z,98237.56
2023-01-02T03:31:27.854Z,98242.13
2023-01-02T03:32:34.020Z,98236.81
2023-01-02T03:33:42.468Z,98236.06
2023-01-02T03:34:47.144Z,98236.38
2023-01-02T03:35:52.681Z,98238.53
2023-01-02T03:36:59.703Z,98247.59
2023-01-02T03:38:04.198Z,98242.84
2023-01-02T03:39:13.163Z,98239.13
2023-01-02T03:40:39.313Z,98244.19
2023-01-02T03:41:55.664Z,98248.19
2023-01-02T03:43:13.727Z,98242.22
2023-01-02T03:44:16.994Z,98248.72
2023-01-02T03:45:24.774Z,98251.88
2023-01-02T03:46:33.529Z,98250.59
2023-01-02T03:47:59.332Z,98249.56
2023-01-02T03:49:04.829Z,98251.97
2023-01-02T03:50:14.347Z,98251.16
2023-01-02T03:51:16.097Z,98250.69
2023-01-02T03:52:21.133Z,98252.03
2023-01-02T03:53:28.976Z,98253.41
2023-01-02T03:54:31.173Z,98256.56
2023-01-02T03:55:38.093Z,98258.19
2023-01-02T03:57:01.006Z,98250.78
2023-01-02T03:58:48.883Z,98260.66
2023-01-02T04:00:06.524Z,98257.66
2023-01-02T04:01:12.683Z,98268.28
2023-01-02T04:02:14.438Z,98270.47
2023-01-02T04:03:23.280Z,98268.28
2023-01-02T04:04:50.878Z,98265.06
2023-01-02T04:06:00.997Z,98258.38
2023-01-02T04:07:07.305Z,98254.53
2023-01-02T04:08:16.762Z,98253.13
2023-01-02T04:09:25.257Z,98252.19
2023-01-02T04:10:29.329Z,98254.16
2023-01-02T04:11:33.999Z,98253.16
2023-01-02T04:12:39.229Z,98255.72
2023-01-02T04:13:47.693Z,98251.56
2023-01-02T04:15:02.754Z,98258.84
2023-01-02T04:16:08.278Z,98259.81
2023-01-02T04:17:12.326Z,98262.63
2023-01-02T04:18:21.693Z,98268.09
2023-01-02T04:19:35.281Z,98270.28
2023-01-02T04:20:42.051Z,98274.09
2023-01-02T04:21:48.857Z,98273.13
2023-01-02T04:22:57.018Z,98272.38
2023-01-02T04:24:10.223Z,98274.22
2023-01-02T04:25:15.207Z,98273.63
2023-01-02T04:26:34.080Z,98277.19
2023-01-02T04:27:40.957Z,98271.69
2023-01-02T04:28:42.763Z,98280.28
2023-01-02T04:29:44.410Z,98271.84
2023-01-02T04:30:54.898Z,98276.16
2023-01-02T04:32:03.796Z,98271.66
2023-01-02T04:33:08.739Z,98271.41
2023-01-02T04:34:15.150Z,98268.69
2023-01-02T04:35:20.545Z,98263.25
2023-01-02T04:36:22.725Z,98268.38
2023-01-02T04:37:27.588Z,98272.41
2023-01-02T04:38:29.145Z,98267.16
2023-01-02T04:39:31.357Z,98269.81
2023-01-02T04:40:36.666Z,98267.75
2023-01-02T04:41:39.400Z,98270.03
2023-01-02T04:42:40.978Z,98263.78
2023-01-02T04:43:42.579Z,98268.22
2023-01-02T04:44:44.144Z,98269.28
2023-01-02T04:45:49.652Z,98270.69
2023-01-02T04:46:51.206Z,98271.34
2023-01-02T04:47:52.732Z,98274.53
2023-01-02T04:48:55.322Z,98269.22
2023-01-02T04:49:56.912Z,98268.25
2023-01-02T04:50:58.464Z,98276.81
2023-01-02T04:52:00.027Z,98267.09
2023-01-02T04:53:01.641Z,98274.53
2023-01-02T04:54:03.255Z,98272.53
2023-01-02T04:55:08.370Z,98277.88
2023-01-02T04:56:09.988Z,98279.22
2023-01-02T04:57:11.559Z,98280.03
2023-01-02T04:58:13.481Z,98282.19
2023-01-02T04:59:15.018Z,98280.44
2023-01-02T05:00:16.859Z,98286.38
2023-01-02T05:01:20.633Z,98283.03
2023-01-02T05:02:22.360Z,98286.28
2023-01-02T05:03:24.155Z,98283.69
2023-01-02T05:04:25.755Z,98286.06
2023-01-02T05:05:27.279Z,98290.09
2023-01-02T05:06:28.800Z,98289.34
2023-01-02T05:07:30.358Z,98286.75
2023-01-02T05:08:31.954Z,98289.44
2023-01-02T05:09:33.489Z,98285.50
2023-01-02T05:10:35.009Z,98295.00
2023-01-02T05:11:36.553Z,98294.47
2023-01-02T05:12:39.536Z,98288.59
2023-01-02T05:13:41.713Z,98294.69
2023-01-02T05:14:43.279Z,98299.19
2023-01-02T05:15:44.825Z,98292.03
2023-01-02T05:16:46.374Z,98297.59
2023-01-02T05:17:47.915Z,98302.34
2023-01-02T05:18:49.502Z,98299.47
2023-01-02T05:19:51.106Z,98300.81
2023-01-02T05:20:52.645Z,98302.41
2023-01-02T05:22:12.729Z,98299.53
2023-01-02T05:23:32.550Z,98298.19
2023-01-02T05:24:34.080Z,98306.72
2023-01-02T05:25:36.444Z,98299.28
2023-01-02T05:26:37.970Z,98305.16
2023-01-02T05:27:39.583Z,98303.91
2023-01-02T05:28:41.481Z,98305.50
2023-01-02T05:29:43.080Z,98306.22
2023-01-02T05:30:44.682Z,98308.28
2023-01-02T05:31:46.677Z,98314.41
2023-01-02T05:32:48.580Z,98321.06
2023-01-02T05:33:53.482Z,98316.81
2023-01-02T05:34:54.989Z,98317.56
2023-01-02T05:35:56.512Z,98325.19
2023-01-02T05:36:58.113Z,98316.41
2023-01-02T05:37:59.740Z,98327.81
2023-01-02T05:39:01.713Z,98315.63
2023-01-02T05:40:03.944Z,98321.72
2023-01-02T05:41:07.289Z,98319.88
2023-01-02T05:42:08.812Z,98320.91
2023-01-02T05:43:10.367Z,98330.31
2023-01-02T05:44:11.941Z,98321.69
2023-01-02T05:45:13.442Z,98324.28
2023-01-02T05:46:17.420Z,98335.16
2023-01-02T05:47:19.101Z,98324.31
2023-01-02T05:48:20.689Z,98322.31
2023-01-02T05:49:22.269Z,98326.59
2023-01-02T05:50:23.824Z,98328.75
2023-01-02T05:51:25.380Z,98327.38
2023-01-02T05:52:26.957Z,98327.91
2023-01-02T05:53:28.840Z,98335.00
2023-01-02T05:54:30.497Z,98331.78
2023-01-02T05:55:32.016Z,98335.50
2023-01-02T05:56:33.573Z,98328.59
2023-01-02T05:57:35.553Z,98331.78
2023-01-02T05:58:39.536Z,98333.88
2023-01-02T05:59:41.041Z,98336.28
2023-01-02T06:00:42.597Z,98341.91
2023-01-02T06:01:44.427Z,98336.59
2023-01-02T06:02:48.215Z,98335.78
2023-01-02T06:03:52.964Z,98340.06
2023-01-02T06:04:54.480Z,98344.50
2023-01-02T06:05:55.986Z,98339.66
2023-01-02T06:06:57.526Z,98339.13
2023-01-02T06:07:59.116Z,98346.03
2023-01-02T06:09:02.015Z,98345.53
2023-01-02T06:10:03.617Z,98345.03
2023-01-02T06:11:06.121Z,98354.09
2023-01-02T06:12:07.740Z,98345.09
2023-01-02T06:13:09.292Z,98342.19
2023-01-02T06:14:10.999Z,98348.88
2023-01-02T06:15:12.535Z,98345.41
2023-01-02T06:16:14.598Z,98338.00
2023-01-02T06:17:16.384Z,98339.38
2023-01-02T06:18:17.997Z,98346.28
2023-01-02T06:19:19.612Z,98351.00
2023-01-02T06:20:21.152Z,98341.22
2023-01-02T06:21:22.941Z,98345.19
2023-01-02T06:22:24.478Z,98344.59
2023-01-02T06:23:26.280Z,98352.38
2023-01-02T06:24:27.963Z,98339.53
2023-01-02T06:25:29.488Z,98347.56
2023-01-02T06:26:34.987Z,98344.97
2023-01-02T06:27:36.861Z,98338.19
2023-01-02T06:28:39.002Z,98349.41
2023-01-02T06:29:40.555Z,98343.13
2023-01-02T06:30:42.115Z,98343.16
2023-01-02T06:31:50.840Z,98344.28
2023-01-02T06:32:52.759Z,98341.63
2023-01-02T06:33:59.072Z,98340.00
2023-01-02T06:35:00.602Z,98348.53
2023-01-02T06:36:05.032Z,98341.13
2023-01-02T06:37:09.946Z,98347.25
2023-01-02T06:38:11.975Z,98345.88
2023-01-02T06:39:13.583Z,98346.63
2023-01-02T06:40:15.475Z,98340.53
2023-01-02T06:41:17.729Z,98341.09
2023-01-02T06:42:19.245Z,98345.59
2023-01-02T06:43:20.945Z,98341.63
2023-01-02T06:44:22.442Z,98344.59
2023-01-02T06:45:24.186Z,98346.97
2023-01-02T06:46:25.868Z,98346.44
2023-01-02T06:47:27.409Z,98350.13
2023-01-02T06:48:29.039Z,98344.22
2023-01-02T06:49:30.605Z,98344.28
2023-01-02T06:50:35.065Z,98343.78
2023-01-02T06:51:36.881Z,98348.59
2023-01-02T06:52:38.377Z,98349.06
2023-01-02T06:53:41.618Z,98350.75
2023-01-02T06:54:43.228Z,98353.16
2023-01-02T06:55:56.087Z,98349.53
2023-01-02T06:56:57.647Z,98356.88
2023-01-02T06:58:03.282Z,98351.28
2023-01-02T06:59:11.907Z,98359.94
2023-01-02T07:00:14.217Z,98354.63
2023-01-02T07:01:18.492Z,98354.50
2023-01-02T07:02:20.280Z,98359.38
2023-01-02T07:03:21.969Z,98356.78
2023-01-02T07:04:23.603Z,98351.56
2023-01-02T07:05:25.166Z,98359.56
2023-01-02T07:06:27.901Z,98361.47
2023-01-02T07:07:29.502Z,98361.31
2023-01-02T07:08:32.167Z,98358.91
2023-01-02T07:09:33.723Z,98361.59
2023-01-02T07:10:35.624Z,98365.63
2023-01-02T07:11:38.532Z,98363.25
2023-01-02T07:12:40.228Z,98360.69
2023-01-02T07:13:43.285Z,98362.25
2023-01-02T07:14:44.830Z,98357.44
2023-01-02T07:15:46.418Z,98363.06
2023-01-02T07:16:47.998Z,98365.72
2023-01-02T07:17:49.727Z,98360.97
2023-01-02T07:18:54.287Z,98364.19
2023-01-02T07:20:00.989Z,98367.69
2023-01-02T07:21:04.583Z,98364.31
2023-01-02T07:22:06.103Z,98367.78
2023-01-02T07:23:07.604Z,98367.44
2023-01-02T07:24:15.895Z,98366.19
2023-01-02T07:25:18.263Z,98363.44
2023-01-02T07:26:21.292Z,98362.63
2023-01-02T07:27:22.860Z,98358.72
2023-01-02T07:28:25.198Z,98358.47
2023-01-02T07:29:26.778Z,98361.56
2023-01-02T07:30:28.525Z,98369.78
2023-01-02T07:31:30.284Z,98362.56
2023-01-02T07:32:31.842Z,98361.81
2023-01-02T07:33:34.336Z,98361.03
2023-01-02T07:34:35.845Z,98362.44
2023-01-02T07:35:37.399Z,98356.63
2023-01-02T07:36:38.999Z,98363.06
2023-01-02T07:37:40.526Z,98358.78
2023-01-02T07:38:42.556Z,98359.41
2023-01-02T07:39:44.077Z,98357.97
2023-01-02T07:40:45.602Z,98360.69
2023-01-02T07:41:47.216Z,98359.72
2023-01-02T07:42:48.752Z,98355.53
2023-01-02T07:43:51.470Z,98355.38
2023-01-02T07:44:52.991Z,98353.41
2023-01-02T07:45:54.521Z,98351.22
2023-01-02T07:46:56.188Z,98353.53
2023-01-02T07:47:58.132Z,98349.94
2023-01-02T07:48:59.662Z,98352.47
2023-01-02T07:50:01.183Z,98352.78
2023-01-02T07:51:04.755Z,98351.31
2023-01-02T07:52:09.864Z,98353.28
2023-01-02T07:53:11.482Z,98348.34
2023-01-02T07:54:13.026Z,98358.72
2023-01-02T07:55:14.644Z,98356.06
2023-01-02T07:56:16.166Z,98356.13
2023-01-02T07:57:17.770Z,98357.97
2023-01-02T07:58:19.317Z,98349.28
2023-01-02T07:59:20.859Z,98354.03
2023-01-02T08:00:22.488Z,98350.84
2023-01-02T08:01:24.154Z,98349.78
2023-01-02T08:02:25.963Z,98351.69
2023-01-02T08:03:28.215Z,98354.09
2023-01-02T08:04:29.819Z,98351.81
2023-01-02T08:05:34.188Z,98353.22
2023-01-02T08:06:38.877Z,98348.75
2023-01-02T08:07:44.806Z,98354.63
2023-01-02T08:08:47.442Z,98352.28
2023-01-02T08:09:49.105Z,98354.44
2023-01-02T08:10:50.912Z,98355.50
2023-01-02T08:11:52.457Z,98347.66
2023-01-02T08:12:54.031Z,98346.34
2023-01-02T08:13:55.577Z,98348.97
2023-01-02T08:14:57.161Z,98347.66
2023-01-02T08:15:58.710Z,98343.34
2023-01-02T08:17:00.383Z,98352.84
2023-01-02T08:18:01.944Z,98347.66
2023-01-02T08:19:03.501Z,98348.22
2023-01-02T08:20:08.244Z,98353.44
2023-01-02T08:21:10.621Z,98352.22
2023-01-02T08:22:12.201Z,98353.78
2023-01-02T08:23:13.801Z,98346.63
2023-01-02T08:24:15.373Z,98354.88
2023-01-02T08:25:17.648Z,98351.75
2023-01-02T08:26:20.616Z,98352.22
2023-01-02T08:27:22.117Z,98352.09
2023-01-02T08:28:23.665Z,98343.06
2023-01-02T08:29:25.227Z,98345.94
2023-01-02T08:30:26.816Z,98342.81
2023-01-02T08:31:28.453Z,98340.53
2023-01-02T08:32:30.032Z,98336.63
2023-01-02T08:33:31.579Z,98341.72
2023-01-02T08:34:34.662Z,98342.81
2023-01-02T08:35:38.964Z,98345.03
2023-01-02T08:36:41.675Z,98338.75
2023-01-02T08:37:48.432Z,98338.28
2023-01-02T08:38:51.995Z,98334.56
2023-01-02T08:39:53.564Z,98333.53
2023-01-02T08:40:58.061Z,98333.03
2023-01-02T08:41:59.595Z,98331.41
2023-01-02T08:43:01.137Z,98326.63
2023-01-02T08:44:03.089Z,98324.25
2023-01-02T08:45:05.084Z,98334.00
2023-01-02T08:46:08.282Z,98329.28
2023-01-02T08:47:09.882Z,98332.47
2023-01-02T08:48:20.213Z,98322.06
2023-01-02T08:49:23.225Z,98323.50
2023-01-02T08:50:24.921Z,98325.50
2023-01-02T08:51:27.485Z,98331.91
2023-01-02T08:52:29.084Z,98323.84
2023-01-02T08:53:30.745Z,98319.47
2023-01-02T08:54:32.662Z,98317.72
2023-01-02T08:55:34.202Z,98317.47
2023-01-02T08:56:37.663Z,98316.78
2023-01-02T08:57:39.573Z,98317.66
2023-01-02T08:58:41.091Z,98320.13
2023-01-02T08:59:42.672Z,98321.50
2023-01-02T09:00:44.232Z,98308.28
2023-01-02T09:01:45.973Z,98311.00
2023-01-02T09:02:47.849Z,98309.53
2023-01-02T09:03:49.937Z,98307.41
2023-01-02T09:04:51.527Z,98313.25
2023-01-02T09:05:55.260Z,98305.31
2023-01-02T09:06:56.773Z,98303.19
2023-01-02T09:07:58.772Z,98314.41
2023-01-02T09:09:04.282Z,98308.06
2023-01-02T09:10:10.105Z,98304.88
2023-01-02T09:11:14.699Z,98309.69
2023-01-02T09:12:16.216Z,98301.78
2023-01-02T09:13:17.788Z,98310.47
2023-01-02T09:14:21.395Z,98304.88
2023-01-02T09:15:22.950Z,98308.38
2023-01-02T09:16:25.187Z,98296.47
2023-01-02T09:17:26.767Z,98294.88
2023-01-02T09:18:29.693Z,98294.34
2023-01-02T09:19:31.309Z,98298.63
2023-01-02T09:20:32.826Z,98290.09
2023-01-02T09:21:35.100Z,98297.53
2023-01-02T09:22:36.880Z,98290.16
2023-01-02T09:23:38.407Z,98291.78
2023-01-02T09:24:39.995Z,98286.03
2023-01-02T09:25:41.559Z,98283.59
2023-01-02T09:26:43.400Z,98282.28
2023-01-02T09:27:44.948Z,98283.38
2023-01-02T09:28:46.911Z,98281.75
2023-01-02T09:29:48.543Z,98274.81
2023-01-02T09:30:50.158Z,98271.09
2023-01-02T09:31:51.818Z,98270.91
2023-01-02T09:32:54.260Z,98271.97
2023-01-02T09:33:55.807Z,98268.69
2023-01-02T09:34:57.513Z,98266.16
2023-01-02T09:36:02.997Z,98266.25
2023-01-02T09:37:04.522Z,98264.56
2023-01-02T09:38:06.074Z,98268.00
2023-01-02T09:39:07.691Z,98265.19
2023-01-02T09:40:09.980Z,98272.78
2023-01-02T09:41:46.584Z,98264.19
2023-01-02T09:42:51.024Z,98267.88
2023-01-02T09:43:57.525Z,98257.16
2023-01-02T09:45:08.173Z,98253.88
2023-01-02T09:46:27.532Z,98252.19
2023-01-02T09:47:29.859Z,98250.16
2023-01-02T09:48:35.348Z,98242.72
2023-01-02T09:49:46.437Z,98248.00
2023-01-02T09:50:49.784Z,98244.38
2023-01-02T09:51:51.444Z,98247.03
2023-01-02T09:52:59.650Z,98242.41
2023-01-02T09:54:01.688Z,98245.28
2023-01-02T09:55:04.470Z,98242.41
2023-01-02T09:56:22.396Z,98234.03
2023-01-02T09:57:34.631Z,98234.06
2023-01-02T09:59:01.223Z,98235.13
2023-01-02T10:00:15.991Z,98237.03
2023-01-02T10:02:03.780Z,98226.75
2023-01-02T10:03:19.132Z,98229.53
2023-01-02T10:04:38.805Z,98225.78
2023-01-02T10:05:43.519Z,98221.53
2023-01-02T10:06:55.642Z,98220.47
2023-01-02T10:08:05.858Z,98227.78
2023-01-02T10:09:27.512Z,98221.41
2023-01-02T10:10:42.978Z,98215.59
2023-01-02T10:11:44.506Z,98219.22
2023-01-02T10:13:10.744Z,98217.81
2023-01-02T10:14:37.609Z,98217.19
2023-01-02T10:15:47.596Z,98217.75
2023-01-02T10:16:53.072Z,98210.31
2023-01-02T10:18:04.448Z,98209.88
2023-01-02T10:19:15.584Z,98207.34
2023-01-02T10:20:24.009Z,98210.66
2023-01-02T10:21:35.961Z,98202.94
2023-01-02T10:22:45.405Z,98203.97
2023-01-02T10:24:08.056Z,98201.81
2023-01-02T10:25:26.753Z,98203.56
2023-01-02T10:26:35.908Z,98195.47
2023-01-02T10:27:43.470Z,98193.66
2023-01-02T10:29:03.667Z,98190.84
2023-01-02T10:30:21.066Z,98185.63
2023-01-02T10:31:22.674Z,98184.38
2023-01-02T10:32:26.275Z,98186.56
2023-01-02T10:33:31.150Z,98185.53
2023-01-02T10:34:57.577Z,98176.53
2023-01-02T10:36:02.706Z,98172.28
2023-01-02T10:37:14.312Z,98168.06
2023-01-02T10:38:18.611Z,98163.84
2023-01-02T10:39:27.886Z,98163.84
2023-01-02T10:40:31.774Z,98169.66
2023-01-02T10:41:35.247Z,98159.81
2023-01-02T10:42:36.927Z,98156.84
2023-01-02T10:43:38.592Z,98162.22
2023-01-02T10:44:41.469Z,98158.59
2023-01-02T10:45:43.595Z,98155.72
2023-01-02T10:46:45.186Z,98154.38
2023-01-02T10:47:46.816Z,98154.84
2023-01-02T10:48:52.239Z,98151.06
2023-01-02T10:49:54.470Z,98148.34
2023-01-02T10:51:00.941Z,98149.66
2023-01-02T10:52:13.272Z,98142.44
2023-01-02T10:53:28.968Z,98144.53
2023-01-02T10:54:30.566Z,98139.53
2023-01-02T10:55:37.218Z,98139.06
2023-01-02T10:56:40.567Z,98135.41
2023-01-02T10:57:51.448Z,98130.84
2023-01-02T10:58:56.033Z,98134.22
2023-01-02T11:00:00.035Z,98125.16
2023-01-02T11:01:13.588Z,98118.56
2023-01-02T11:02:49.458Z,98117.97
2023-01-02T11:03:57.705Z,98120.66
2023-01-02T11:05:01.861Z,98123.41
2023-01-02T11:06:25.719Z,98124.28
2023-01-02T11:07:26.770Z,98119.84
2023-01-02T11:08:39.435Z,98116.47
2023-01-02T11:09:55.377Z,98118.91
2023-01-02T11:10:57.013Z,98113.09
2023-01-02T11:12:08.635Z,98109.41
2023-01-02T11:13:16.013Z,98106.00
2023-01-02T11:14:22.023Z,98103.09
2023-01-02T11:15:30.986Z,98104.69
2023-01-02T11:16:38.315Z,98104.06
2023-01-02T11:17:44.418Z,98090.00
2023-01-02T11:18:54.955Z,98087.13
2023-01-02T11:19:57.324Z,98089.25
2023-01-02T11:21:04.640Z,98088.75
2023-01-02T11:22:06.364Z,98086.59
2023-01-02T11:23:15.212Z,98084.47
2023-01-02T11:24:25.891Z,98076.53
2023-01-02T11:25:32.699Z,98083.44
2023-01-02T11:26:38.370Z,98081.28
2023-01-02T11:27:44.174Z,98077.56
2023-01-02T11:28:46.815Z,98073.03
2023-01-02T11:29:50.584Z,98077.78
2023-01-02T11:31:00.619Z,98071.41
2023-01-02T11:32:03.897Z,98074.28
2023-01-02T11:33:13.480Z,98077.47
2023-01-02T11:34:30.375Z,98065.25
2023-01-02T11:35:39.302Z,98059.19
2023-01-02T11:36:44.193Z,98064.81
2023-01-02T11:37:52.491Z,98056.84
2023-01-02T11:38:58.949Z,98052.84
2023-01-02T11:40:02.175Z,98056.31
2023-01-02T11:41:03.872Z,98050.75
2023-01-02T11:42:45.528Z,98052.34
2023-01-02T11:44:01.042Z,98051.53
2023-01-02T11:45:08.903Z,98051.28
2023-01-02T11:46:19.559Z,98044.09
2023-01-02T11:47:38.229Z,98039.31
2023-01-02T11:48:40.128Z,98035.84
2023-01-02T11:49:48.787Z,98041.94
2023-01-02T11:50:50.935Z,98043.53
2023-01-02T11:52:17.518Z,98036.34
2023-01-02T11:53:25.449Z,98033.97
2023-01-02T11:54:35.461Z,98033.97
2023-01-02T11:55:56.848Z,98036.63
2023-01-02T11:56:59.545Z,98037.69
2023-01-02T11:58:14.979Z,98030.78
2023-01-02T11:59:24.916Z,98033.72
2023-01-02T12:00:32.861Z,98034.00
2023-01-02T12:01:53.262Z,98032.66
2023-01-02T12:03:06.707Z,98029.22
2023-01-02T12:04:08.650Z,98018.59
2023-01-02T12:05:15.847Z,98019.66
2023-01-02T12:06:39.599Z,98018.06
2023-01-02T12:08:00.083Z,98013.28
2023-01-02T12:09:14.477Z,98018.59
2023-01-02T12:10:37.000Z,98011.69
2023-01-02T12:12:10.827Z,98015.91
2023-01-02T12:13:31.481Z,98009.53
2023-01-02T12:14:58.015Z,98012.47
2023-01-02T12:16:37.850Z,98005.28
2023-01-02T12:18:06.647Z,97996.75
2023-01-02T12:19:14.287Z,97993.56
2023-01-02T12:20:49.663Z,97994.03
2023-01-02T12:21:58.393Z,97997.47
2023-01-02T12:23:21.581Z,97995.03
2023-01-02T12:24:46.380Z,97992.13
2023-01-02T12:26:12.774Z,97991.06
2023-01-02T12:27:38.348Z,97980.94
2023-01-02T12:28:55.349Z,97986.25
2023-01-02T12:30:01.936Z,97985.47
2023-01-02T12:31:24.596Z,97983.28
2023-01-02T12:32:41.187Z,97987.78
2023-01-02T12:33:48.149Z,97981.06
2023-01-02T12:35:03.902Z,97986.09
2023-01-02T12:36:28.900Z,97979.19
2023-01-02T12:37:38.491Z,97977.81
2023-01-02T12:38:45.724Z,97976.25
2023-01-02T12:40:18.057Z,97972.19
2023-01-02T12:42:00.779Z,97968.63
2023-01-02T12:43:11.479Z,97969.59
2023-01-02T12:44:16.132Z,97971.69
2023-01-02T12:45:26.880Z,97970.09
2023-01-02T12:46:49.653Z,97960.81
2023-01-02T12:48:26.799Z,97963.09
2023-01-02T12:49:48.854Z,97964.09
2023-01-02T12:51:19.588Z,97965.66
2023-01-02T12:52:58.165Z,97956.56
2023-01-02T12:54:32.971Z,97959.41
2023-01-02T12:55:49.192Z,97959.09
2023-01-02T12:57:02.933Z,97952.16
2023-01-02T12:58:23.335Z,97950.78
2023-01-02T12:59:39.703Z,97947.78
2023-01-02T13:00:44.221Z,97949.94
2023-01-02T13:01:58.634Z,97946.50
2023-01-02T13:03:38.590Z,97947.16